sensor_id;sensor_type;location;lat;lon;timestamp;pressure;altitude;pressure_sealevel;temperature;humidity
18813;BME280;9534;51.140;6.296;2022-07-06T00:02:34;101463.53;;;12.63;100.00
18813;BME280;9534;51.140;6.296;2022-07-06T00:06:39;101458.88;;;12.63;100.00
18813;BME280;9534;51.140;6.296;2022-07-06T00:10:42;101462.19;;;12.46;100.00
18813;BME280;9534;51.140;6.296;2022-07-06T00:14:45;101462.50;;;12.30;100.00
18813;BME280;9534;51.140;6.296;2022-07-06T00:18:49;101461.41;;;12.25;100.00
18813;BME280;9534;51.140;6.296;2022-07-06T00:22:53;101459.41;;;12.12;100.00
18813;BME280;9534;51.140;6.296;2022-07-06T00:26:56;101459.00;;;12.15;100.00
18813;BME280;9534;51.140;6.296;2022-07-06T00:30:59;101457.66;;;11.98;100.00
18813;BME280;9534;51.140;6.296;2022-07-06T00:35:03;101463.56;;;12.02;100.00
18813;BME280;9534;51.140;6.296;2022-07-06T00:39:08;101457.13;;;11.88;100.00
18813;BME280;9534;51.140;6.296;2022-07-06T00:43:11;101475.69;;;11.86;100.00
18813;BME280;9534;51.140;6.296;2022-07-06T00:47:14;101467.59;;;11.78;100.00
18813;BME280;9534;51.140;6.296;2022-07-06T00:51:17;101461.78;;;11.67;100.00
18813;BME280;9534;51.140;6.296;2022-07-06T00:55:24;101467.47;;;11.65;100.00
18813;BME280;9534;51.140;6.296;2022-07-06T00:59:27;101482.13;;;11.58;100.00
18813;BME280;9534;51.140;6.296;2022-07-06T01:03:32;101472.66;;;11.60;100.00
18813;BME280;9534;51.140;6.296;2022-07-06T01:07:36;101469.34;;;11.44;100.00
18813;BME280;9534;51.140;6.296;2022-07-06T01:11:40;101475.53;;;11.31;100.00
18813;BME280;9534;51.140;6.296;2022-07-06T01:15:44;101475.47;;;11.25;100.00
18813;BME280;9534;51.140;6.296;2022-07-06T01:19:48;101477.66;;;11.15;100.00
18813;BME280;9534;51.140;6.296;2022-07-06T01:23:52;101478.91;;;11.12;100.00
18813;BME280;9534;51.140;6.296;2022-07-06T01:27:55;101485.06;;;11.14;100.00
18813;BME280;9534;51.140;6.296;2022-07-06T01:31:59;101479.75;;;11.13;100.00
18813;BME280;9534;51.140;6.296;2022-07-06T01:36:03;101472.78;;;11.10;100.00
18813;BME280;9534;51.140;6.296;2022-07-06T01:40:09;101468.91;;;11.05;100.00
18813;BME280;9534;51.140;6.296;2022-07-06T01:44:12;101476.69;;;11.02;100.00
18813;BME280;9534;51.140;6.296;2022-07-06T01:48:16;101476.47;;;11.03;100.00
18813;BME280;9534;51.140;6.296;2022-07-06T01:52:19;101476.69;;;11.02;100.00
18813;BME280;9534;51.140;6.296;2022-07-06T01:56:24;101481.50;;;11.00;100.00
18813;BME280;9534;51.140;6.296;2022-07-06T02:00:32;101478.09;;;10.98;100.00
18813;BME280;9534;51.140;6.296;2022-07-06T02:04:42;101477.94;;;10.85;100.00
18813;BME280;9534;51.140;6.296;2022-07-06T02:08:57;101485.56;;;10.89;100.00
18813;BME280;9534;51.140;6.296;2022-07-06T02:13:02;101480.03;;;10.83;100.00
18813;BME280;9534;51.140;6.296;2022-07-06T02:17:06;101488.44;;;10.67;100.00
18813;BME280;9534;51.140;6.296;2022-07-06T02:21:09;101490.31;;;10.81;100.00
18813;BME280;9534;51.140;6.296;2022-07-06T02:25:13;101480.03;;;10.83;100.00
18813;BME280;9534;51.140;6.296;2022-07-06T02:29:18;101478.88;;;10.77;100.00
18813;BME280;9534;51.140;6.296;2022-07-06T02:33:22;101485.31;;;10.70;100.00
18813;BME280;9534;51.140;6.296;2022-07-06T02:37:25;101473.72;;;10.68;100.00
18813;BME280;9534;51.140;6.296;2022-07-06T02:41:29;101472.66;;;10.69;100.00
18813;BME280;9534;51.140;6.296;2022-07-06T02:45:34;101473.06;;;10.66;100.00
18813;BME280;9534;51.140;6.296;2022-07-06T02:49:38;101478.06;;;10.62;100.00
18813;BME280;9534;51.140;6.296;2022-07-06T02:53:42;101485.50;;;10.54;100.00
18813;BME280;9534;51.140;6.296;2022-07-06T02:57:45;101492.13;;;10.45;100.00
18813;BME280;9534;51.140;6.296;2022-07-06T03:01:49;101493.25;;;10.36;100.00
18813;BME280;9534;51.140;6.296;2022-07-06T03:05:53;101483.53;;;10.33;100.00
18813;BME280;9534;51.140;6.296;2022-07-06T03:09:57;101501.16;;;10.31;100.00
18813;BME280;9534;51.140;6.296;2022-07-06T03:14:02;101506.75;;;10.23;100.00
18813;BME280;9534;51.140;6.296;2022-07-06T03:18:09;101507.50;;;10.17;100.00
18813;BME280;9534;51.140;6.296;2022-07-06T03:22:13;101510.91;;;10.19;100.00
18813;BME280;9534;51.140;6.296;2022-07-06T03:26:16;101505.50;;;10.11;100.00
18813;BME280;9534;51.140;6.296;2022-07-06T03:30:21;101510.59;;;10.14;100.00
18813;BME280;9534;51.140;6.296;2022-07-06T03:34:29;101510.22;;;10.17;100.00
18813;BME280;9534;51.140;6.296;2022-07-06T03:38:33;101511.66;;;10.27;100.00
18813;BME280;9534;51.140;6.296;2022-07-06T03:42:37;101511.38;;;10.37;100.00
18813;BME280;9534;51.140;6.296;2022-07-06T03:46:43;101513.19;;;10.44;100.00
18813;BME280;9534;51.140;6.296;2022-07-06T03:50:48;101508.16;;;10.48;100.00
18813;BME280;9534;51.140;6.296;2022-07-06T03:54:52;101523.25;;;10.44;100.00
18813;BME280;9534;51.140;6.296;2022-07-06T03:59:00;101515.53;;;10.47;100.00
18813;BME280;9534;51.140;6.296;2022-07-06T04:03:08;101521.19;;;10.46;100.00
18813;BME280;9534;51.140;6.296;2022-07-06T04:07:20;101524.22;;;10.51;100.00
18813;BME280;9534;51.140;6.296;2022-07-06T04:11:24;101522.78;;;10.55;100.00
18813;BME280;9534;51.140;6.296;2022-07-06T04:15:28;101525.16;;;10.58;100.00
18813;BME280;9534;51.140;6.296;2022-07-06T04:19:33;101521.00;;;10.62;100.00
18813;BME280;9534;51.140;6.296;2022-07-06T04:23:42;101524.03;;;10.67;100.00
18813;BME280;9534;51.140;6.296;2022-07-06T04:27:46;101528.00;;;10.79;100.00
18813;BME280;9534;51.140;6.296;2022-07-06T04:31:50;101531.00;;;10.84;100.00
18813;BME280;9534;51.140;6.296;2022-07-06T04:35:54;101535.03;;;11.02;100.00
18813;BME280;9534;51.140;6.296;2022-07-06T04:40:07;101526.09;;;11.29;100.00
18813;BME280;9534;51.140;6.296;2022-07-06T04:44:19;101520.78;;;11.42;100.00
18813;BME280;9534;51.140;6.296;2022-07-06T04:48:23;101515.34;;;11.48;100.00
18813;BME280;9534;51.140;6.296;2022-07-06T04:52:27;101508.59;;;11.65;100.00
18813;BME280;9534;51.140;6.296;2022-07-06T04:56:33;101514.47;;;11.83;100.00
18813;BME280;9534;51.140;6.296;2022-07-06T05:00:37;101508.66;;;11.93;100.00
18813;BME280;9534;51.140;6.296;2022-07-06T05:04:41;101513.84;;;12.09;100.00
18813;BME280;9534;51.140;6.296;2022-07-06T05:08:46;101516.06;;;12.20;100.00
18813;BME280;9534;51.140;6.296;2022-07-06T05:12:51;101519.69;;;12.27;100.00
18813;BME280;9534;51.140;6.296;2022-07-06T05:16:55;101511.84;;;12.51;100.00
18813;BME280;9534;51.140;6.296;2022-07-06T05:21:00;101513.78;;;12.57;100.00
18813;BME280;9534;51.140;6.296;2022-07-06T05:25:04;101509.66;;;12.74;100.00
18813;BME280;9534;51.140;6.296;2022-07-06T05:29:09;101515.63;;;12.84;100.00
18813;BME280;9534;51.140;6.296;2022-07-06T05:33:13;101511.09;;;13.04;100.00
18813;BME280;9534;51.140;6.296;2022-07-06T05:37:18;101517.69;;;13.16;100.00
18813;BME280;9534;51.140;6.296;2022-07-06T05:41:22;101512.03;;;13.30;100.00
18813;BME280;9534;51.140;6.296;2022-07-06T05:45:35;101510.19;;;13.44;100.00
18813;BME280;9534;51.140;6.296;2022-07-06T05:49:40;101517.63;;;13.62;100.00
18813;BME280;9534;51.140;6.296;2022-07-06T05:54:01;101509.16;;;13.64;100.00
18813;BME280;9534;51.140;6.296;2022-07-06T05:58:06;101512.56;;;13.79;100.00
18813;BME280;9534;51.140;6.296;2022-07-06T06:02:13;101516.00;;;14.07;100.00
18813;BME280;9534;51.140;6.296;2022-07-06T06:06:18;101513.66;;;14.10;100.00
18813;BME280;9534;51.140;6.296;2022-07-06T06:10:22;101512.38;;;14.19;100.00
18813;BME280;9534;51.140;6.296;2022-07-06T06:14:29;101518.34;;;14.42;100.00
18813;BME280;9534;51.140;6.296;2022-07-06T06:18:34;101515.06;;;14.71;100.00
18813;BME280;9534;51.140;6.296;2022-07-06T06:22:47;101514.63;;;14.87;100.00
18813;BME280;9534;51.140;6.296;2022-07-06T06:26:50;101509.84;;;15.13;100.00
18813;BME280;9534;51.140;6.296;2022-07-06T06:30:53;101514.44;;;15.32;100.00
18813;BME280;9534;51.140;6.296;2022-07-06T06:34:58;101505.81;;;15.60;100.00
18813;BME280;9534;51.140;6.296;2022-07-06T06:39:01;101509.09;;;15.44;100.00
18813;BME280;9534;51.140;6.296;2022-07-06T06:43:04;101508.00;;;15.45;100.00
18813;BME280;9534;51.140;6.296;2022-07-06T06:47:12;101520.66;;;15.59;100.00
18813;BME280;9534;51.140;6.296;2022-07-06T06:51:16;101523.22;;;15.60;100.00
18813;BME280;9534;51.140;6.296;2022-07-06T06:55:19;101526.00;;;15.60;100.00
18813;BME280;9534;51.140;6.296;2022-07-06T06:59:22;101530.00;;;15.58;100.00
18813;BME280;9534;51.140;6.296;2022-07-06T07:03:25;101531.84;;;16.01;100.00
18813;BME280;9534;51.140;6.296;2022-07-06T07:07:30;101530.22;;;15.94;100.00
18813;BME280;9534;51.140;6.296;2022-07-06T07:11:33;101527.41;;;15.69;100.00
18813;BME280;9534;51.140;6.296;2022-07-06T07:15:36;101523.13;;;16.28;100.00
18813;BME280;9534;51.140;6.296;2022-07-06T07:19:39;101518.94;;;16.68;100.00
18813;BME280;9534;51.140;6.296;2022-07-06T07:23:44;101514.72;;;16.41;100.00
18813;BME280;9534;51.140;6.296;2022-07-06T07:27:47;101515.94;;;16.52;100.00
18813;BME280;9534;51.140;6.296;2022-07-06T07:31:50;101527.19;;;16.93;100.00
18813;BME280;9534;51.140;6.296;2022-07-06T07:35:53;101527.25;;;16.68;100.00
18813;BME280;9534;51.140;6.296;2022-07-06T07:39:57;101518.63;;;16.09;100.00
18813;BME280;9534;51.140;6.296;2022-07-06T07:44:01;101525.78;;;16.17;100.00
18813;BME280;9534;51.140;6.296;2022-07-06T07:48:05;101532.97;;;16.24;100.00
18813;BME280;9534;51.140;6.296;2022-07-06T07:52:09;101535.31;;;15.90;100.00
18813;BME280;9534;51.140;6.296;2022-07-06T07:56:14;101547.34;;;16.26;100.00
18813;BME280;9534;51.140;6.296;2022-07-06T08:00:17;101536.78;;;16.23;100.00
18813;BME280;9534;51.140;6.296;2022-07-06T08:04:28;101539.41;;;16.43;100.00
18813;BME280;9534;51.140;6.296;2022-07-06T08:08:32;101523.00;;;16.41;100.00
18813;BME280;9534;51.140;6.296;2022-07-06T08:12:36;101521.47;;;16.52;100.00
18813;BME280;9534;51.140;6.296;2022-07-06T08:16:46;101527.59;;;16.96;100.00
18813;BME280;9534;51.140;6.296;2022-07-06T08:20:49;101522.47;;;17.29;100.00
18813;BME280;9534;51.140;6.296;2022-07-06T08:25:12;101522.63;;;17.52;100.00
18813;BME280;9534;51.140;6.296;2022-07-06T08:29:17;101518.88;;;16.93;100.00
18813;BME280;9534;51.140;6.296;2022-07-06T08:33:21;101524.44;;;16.50;100.00
18813;BME280;9534;51.140;6.296;2022-07-06T08:37:25;101523.25;;;16.64;100.00
18813;BME280;9534;51.140;6.296;2022-07-06T08:41:29;101522.22;;;16.34;100.00
18813;BME280;9534;51.140;6.296;2022-07-06T08:45:34;101525.31;;;16.69;100.00
18813;BME280;9534;51.140;6.296;2022-07-06T08:49:38;101524.03;;;17.72;100.00
18813;BME280;9534;51.140;6.296;2022-07-06T08:53:41;101516.94;;;18.97;100.00
18813;BME280;9534;51.140;6.296;2022-07-06T08:57:45;101521.53;;;18.23;100.00
18813;BME280;9534;51.140;6.296;2022-07-06T09:01:50;101534.44;;;17.59;100.00
18813;BME280;9534;51.140;6.296;2022-07-06T09:05:58;101535.69;;;17.27;100.00
18813;BME280;9534;51.140;6.296;2022-07-06T09:10:03;101529.72;;;16.94;100.00
18813;BME280;9534;51.140;6.296;2022-07-06T09:14:06;101525.66;;;17.15;100.00
18813;BME280;9534;51.140;6.296;2022-07-06T09:18:11;101515.03;;;17.47;100.00
18813;BME280;9534;51.140;6.296;2022-07-06T09:22:25;101516.78;;;17.71;100.00
18813;BME280;9534;51.140;6.296;2022-07-06T09:26:29;101509.03;;;18.44;100.00
18813;BME280;9534;51.140;6.296;2022-07-06T09:30:32;101514.16;;;18.29;100.00
18813;BME280;9534;51.140;6.296;2022-07-06T09:34:46;101505.84;;;18.29;100.00
18813;BME280;9534;51.140;6.296;2022-07-06T09:38:49;101511.72;;;19.91;100.00
18813;BME280;9534;51.140;6.296;2022-07-06T09:43:07;101510.88;;;20.07;100.00
18813;BME280;9534;51.140;6.296;2022-07-06T09:47:11;101506.88;;;20.14;100.00
18813;BME280;9534;51.140;6.296;2022-07-06T09:51:16;101520.19;;;21.80;100.00
18813;BME280;9534;51.140;6.296;2022-07-06T09:55:26;101528.50;;;21.32;100.00
18813;BME280;9534;51.140;6.296;2022-07-06T09:59:31;101523.56;;;20.47;100.00
18813;BME280;9534;51.140;6.296;2022-07-06T10:03:34;101532.97;;;19.30;100.00
18813;BME280;9534;51.140;6.296;2022-07-06T10:07:39;101530.56;;;19.89;100.00
18813;BME280;9534;51.140;6.296;2022-07-06T10:11:45;101523.00;;;19.06;100.00
18813;BME280;9534;51.140;6.296;2022-07-06T10:15:50;101516.78;;;19.38;100.00
18813;BME280;9534;51.140;6.296;2022-07-06T10:19:54;101522.06;;;22.01;100.00
18813;BME280;9534;51.140;6.296;2022-07-06T10:24:07;101521.47;;;22.26;87.88
18813;BME280;9534;51.140;6.296;2022-07-06T10:28:10;101521.13;;;22.22;87.12
18813;BME280;9534;51.140;6.296;2022-07-06T10:32:18;101522.28;;;21.95;92.22
18813;BME280;9534;51.140;6.296;2022-07-06T10:36:22;101515.19;;;21.39;91.96
18813;BME280;9534;51.140;6.296;2022-07-06T10:40:33;101515.13;;;21.77;92.25
18813;BME280;9534;51.140;6.296;2022-07-06T10:44:53;101517.94;;;23.18;78.82
18813;BME280;9534;51.140;6.296;2022-07-06T10:48:57;101519.22;;;21.96;87.53
18813;BME280;9534;51.140;6.296;2022-07-06T10:53:00;101507.44;;;21.89;83.53
18813;BME280;9534;51.140;6.296;2022-07-06T10:57:10;101512.59;;;22.02;76.63
18813;BME280;9534;51.140;6.296;2022-07-06T11:01:18;101513.00;;;20.66;87.69
18813;BME280;9534;51.140;6.296;2022-07-06T11:05:42;101508.50;;;21.83;81.88
18813;BME280;9534;51.140;6.296;2022-07-06T11:10:05;101513.44;;;21.55;92.08
18813;BME280;9534;51.140;6.296;2022-07-06T11:14:12;101514.34;;;21.60;87.03
18813;BME280;9534;51.140;6.296;2022-07-06T11:18:19;101507.97;;;21.86;87.29
18813;BME280;9534;51.140;6.296;2022-07-06T11:22:22;101508.56;;;22.46;84.66
18813;BME280;9534;51.140;6.296;2022-07-06T11:26:27;101504.09;;;21.44;83.69
18813;BME280;9534;51.140;6.296;2022-07-06T11:30:35;101505.50;;;22.48;78.12
18813;BME280;9534;51.140;6.296;2022-07-06T11:34:40;101508.19;;;21.58;79.11
18813;BME280;9534;51.140;6.296;2022-07-06T11:38:46;101509.25;;;21.10;85.95
18813;BME280;9534;51.140;6.296;2022-07-06T11:42:53;101503.38;;;20.07;84.43
18813;BME280;9534;51.140;6.296;2022-07-06T11:46:59;101504.25;;;21.12;82.56
18813;BME280;9534;51.140;6.296;2022-07-06T11:51:05;101503.53;;;21.42;77.77
18813;BME280;9534;51.140;6.296;2022-07-06T11:55:09;101492.13;;;22.23;75.80
18813;BME280;9534;51.140;6.296;2022-07-06T11:59:14;101503.16;;;21.77;79.62
18813;BME280;9534;51.140;6.296;2022-07-06T12:03:19;101492.03;;;21.60;78.99
18813;BME280;9534;51.140;6.296;2022-07-06T12:07:27;101485.44;;;21.66;83.08
18813;BME280;9534;51.140;6.296;2022-07-06T12:11:33;101488.03;;;21.51;81.96
18813;BME280;9534;51.140;6.296;2022-07-06T12:15:37;101485.75;;;22.23;73.80
18813;BME280;9534;51.140;6.296;2022-07-06T12:19:42;101490.66;;;20.94;80.27
18813;BME280;9534;51.140;6.296;2022-07-06T12:23:48;101470.03;;;21.37;84.21
18813;BME280;9534;51.140;6.296;2022-07-06T12:27:52;101478.34;;;23.21;71.10
18813;BME280;9534;51.140;6.296;2022-07-06T12:31:57;101476.16;;;21.34;80.41
18813;BME280;9534;51.140;6.296;2022-07-06T12:36:10;101457.72;;;22.80;72.44
18813;BME280;9534;51.140;6.296;2022-07-06T12:40:14;101466.88;;;22.71;72.46
18813;BME280;9534;51.140;6.296;2022-07-06T12:44:20;101455.59;;;21.88;75.30
18813;BME280;9534;51.140;6.296;2022-07-06T12:48:27;101450.25;;;22.13;75.73
18813;BME280;9534;51.140;6.296;2022-07-06T12:52:32;101446.13;;;21.41;84.54
18813;BME280;9534;51.140;6.296;2022-07-06T12:56:37;101449.50;;;20.79;88.52
18813;BME280;9534;51.140;6.296;2022-07-06T13:00:58;101454.41;;;22.88;74.61
18813;BME280;9534;51.140;6.296;2022-07-06T13:05:11;101453.66;;;23.08;78.02
18813;BME280;9534;51.140;6.296;2022-07-06T13:09:16;101471.34;;;24.69;66.44
18813;BME280;9534;51.140;6.296;2022-07-06T13:13:20;101459.03;;;24.15;63.67
18813;BME280;9534;51.140;6.296;2022-07-06T13:17:24;101460.34;;;22.97;68.26
18813;BME280;9534;51.140;6.296;2022-07-06T13:21:27;101447.00;;;22.62;73.37
18813;BME280;9534;51.140;6.296;2022-07-06T13:25:32;101450.59;;;23.90;63.09
18813;BME280;9534;51.140;6.296;2022-07-06T13:29:35;101434.97;;;24.24;66.59
18813;BME280;9534;51.140;6.296;2022-07-06T13:33:38;101438.28;;;24.71;62.64
18813;BME280;9534;51.140;6.296;2022-07-06T13:37:42;101440.13;;;25.64;59.71
18813;BME280;9534;51.140;6.296;2022-07-06T13:41:46;101442.00;;;25.35;58.31
18813;BME280;9534;51.140;6.296;2022-07-06T13:45:50;101431.78;;;24.91;57.89
18813;BME280;9534;51.140;6.296;2022-07-06T13:49:53;101423.38;;;26.31;56.61
18813;BME280;9534;51.140;6.296;2022-07-06T13:53:56;101427.78;;;26.08;56.06
18813;BME280;9534;51.140;6.296;2022-07-06T13:58:01;101420.97;;;24.59;58.00
18813;BME280;9534;51.140;6.296;2022-07-06T14:02:04;101429.53;;;23.48;65.83
18813;BME280;9534;51.140;6.296;2022-07-06T14:06:09;101433.84;;;24.60;59.89
18813;BME280;9534;51.140;6.296;2022-07-06T14:10:12;101422.31;;;24.52;58.93
18813;BME280;9534;51.140;6.296;2022-07-06T14:14:17;101410.00;;;24.68;60.86
18813;BME280;9534;51.140;6.296;2022-07-06T14:18:20;101411.44;;;25.33;59.59
18813;BME280;9534;51.140;6.296;2022-07-06T14:22:23;101403.84;;;24.56;61.23
18813;BME280;9534;51.140;6.296;2022-07-06T14:26:27;101402.69;;;25.45;58.96
18813;BME280;9534;51.140;6.296;2022-07-06T14:30:31;101402.63;;;26.83;53.90
18813;BME280;9534;51.140;6.296;2022-07-06T14:34:34;101400.69;;;25.94;51.13
18813;BME280;9534;51.140;6.296;2022-07-06T14:38:38;101400.69;;;26.55;51.01
18813;BME280;9534;51.140;6.296;2022-07-06T14:42:41;101392.25;;;25.55;53.91
18813;BME280;9534;51.140;6.296;2022-07-06T14:46:45;101390.06;;;24.84;55.39
18813;BME280;9534;51.140;6.296;2022-07-06T14:50:48;101386.53;;;23.59;58.93
18813;BME280;9534;51.140;6.296;2022-07-06T14:54:51;101391.25;;;24.68;58.09
18813;BME280;9534;51.140;6.296;2022-07-06T14:58:55;101379.34;;;25.01;54.31
18813;BME280;9534;51.140;6.296;2022-07-06T15:03:19;101377.59;;;23.62;60.90
18813;BME280;9534;51.140;6.296;2022-07-06T15:07:22;101365.84;;;23.45;64.40
18813;BME280;9534;51.140;6.296;2022-07-06T15:11:26;101359.25;;;24.84;58.23
18813;BME280;9534;51.140;6.296;2022-07-06T15:15:29;101362.13;;;25.71;53.32
18813;BME280;9534;51.140;6.296;2022-07-06T15:19:53;101360.47;;;25.65;53.61
18813;BME280;9534;51.140;6.296;2022-07-06T15:23:57;101361.59;;;24.67;56.53
18813;BME280;9534;51.140;6.296;2022-07-06T15:28:00;101349.31;;;24.58;58.72
18813;BME280;9534;51.140;6.296;2022-07-06T15:32:04;101341.50;;;23.31;62.09
18813;BME280;9534;51.140;6.296;2022-07-06T15:36:09;101324.78;;;22.59;67.47
18813;BME280;9534;51.140;6.296;2022-07-06T15:40:12;101330.38;;;22.23;73.28
18813;BME280;9534;51.140;6.296;2022-07-06T15:44:18;101322.03;;;22.18;73.99
18813;BME280;9534;51.140;6.296;2022-07-06T15:48:21;101316.97;;;22.56;72.56
18813;BME280;9534;51.140;6.296;2022-07-06T15:52:26;101314.31;;;24.36;64.61
18813;BME280;9534;51.140;6.296;2022-07-06T15:56:29;101313.56;;;24.15;63.56
18813;BME280;9534;51.140;6.296;2022-07-06T16:00:34;101314.00;;;24.62;61.10
18813;BME280;9534;51.140;6.296;2022-07-06T16:04:38;101307.13;;;24.93;59.75
18813;BME280;9534;51.140;6.296;2022-07-06T16:08:43;101304.06;;;23.96;65.68
18813;BME280;9534;51.140;6.296;2022-07-06T16:12:48;101298.19;;;24.86;58.50
18813;BME280;9534;51.140;6.296;2022-07-06T16:16:52;101293.84;;;25.57;55.39
18813;BME280;9534;51.140;6.296;2022-07-06T16:20:56;101295.00;;;25.51;56.09
18813;BME280;9534;51.140;6.296;2022-07-06T16:25:02;101294.13;;;25.84;56.19
18813;BME280;9534;51.140;6.296;2022-07-06T16:29:07;101283.03;;;25.40;57.59
18813;BME280;9534;51.140;6.296;2022-07-06T16:33:11;101274.06;;;25.72;56.99
18813;BME280;9534;51.140;6.296;2022-07-06T16:37:15;101268.78;;;24.15;62.15
18813;BME280;9534;51.140;6.296;2022-07-06T16:41:21;101274.47;;;23.46;66.90
18813;BME280;9534;51.140;6.296;2022-07-06T16:45:25;101273.69;;;22.59;73.00
18813;BME280;9534;51.140;6.296;2022-07-06T16:49:29;101255.66;;;21.79;80.09
18813;BME280;9534;51.140;6.296;2022-07-06T16:53:33;101249.28;;;22.30;82.07
18813;BME280;9534;51.140;6.296;2022-07-06T16:57:37;101247.44;;;22.50;81.56
18813;BME280;9534;51.140;6.296;2022-07-06T17:01:45;101260.06;;;22.11;81.58
18813;BME280;9534;51.140;6.296;2022-07-06T17:05:49;101251.25;;;22.39;82.06
18813;BME280;9534;51.140;6.296;2022-07-06T17:09:53;101234.66;;;22.69;76.59
18813;BME280;9534;51.140;6.296;2022-07-06T17:14:01;101229.88;;;22.49;81.37
18813;BME280;9534;51.140;6.296;2022-07-06T17:18:05;101233.88;;;22.98;81.45
18813;BME280;9534;51.140;6.296;2022-07-06T17:22:08;101227.75;;;22.25;84.66
18813;BME280;9534;51.140;6.296;2022-07-06T17:26:13;101231.97;;;22.28;86.75
18813;BME280;9534;51.140;6.296;2022-07-06T17:30:18;101231.28;;;22.01;86.69
18813;BME280;9534;51.140;6.296;2022-07-06T17:34:22;101235.53;;;22.13;86.88
18813;BME280;9534;51.140;6.296;2022-07-06T17:38:26;101223.34;;;21.73;90.97
18813;BME280;9534;51.140;6.296;2022-07-06T17:42:32;101239.31;;;21.92;91.36
18813;BME280;9534;51.140;6.296;2022-07-06T17:46:37;101238.19;;;21.52;93.34
18813;BME280;9534;51.140;6.296;2022-07-06T17:50:42;101233.72;;;21.87;92.26
18813;BME280;9534;51.140;6.296;2022-07-06T17:54:47;101233.94;;;21.76;92.15
18813;BME280;9534;51.140;6.296;2022-07-06T17:58:56;101229.25;;;21.86;93.59
18813;BME280;9534;51.140;6.296;2022-07-06T18:03:03;101222.91;;;21.59;96.56
18813;BME280;9534;51.140;6.296;2022-07-06T18:07:08;101218.97;;;21.55;97.78
18813;BME280;9534;51.140;6.296;2022-07-06T18:11:14;101213.38;;;21.50;97.85
18813;BME280;9534;51.140;6.296;2022-07-06T18:15:18;101221.56;;;21.25;99.86
18813;BME280;9534;51.140;6.296;2022-07-06T18:19:24;101217.25;;;21.13;100.00
18813;BME280;9534;51.140;6.296;2022-07-06T18:23:28;101206.69;;;20.89;100.00
18813;BME280;9534;51.140;6.296;2022-07-06T18:27:33;101203.59;;;21.12;100.00
18813;BME280;9534;51.140;6.296;2022-07-06T18:31:38;101205.03;;;21.19;100.00
18813;BME280;9534;51.140;6.296;2022-07-06T18:35:44;101202.63;;;21.27;100.00
18813;BME280;9534;51.140;6.296;2022-07-06T18:39:57;101199.81;;;21.22;100.00
18813;BME280;9534;51.140;6.296;2022-07-06T18:44:01;101204.47;;;21.17;100.00
18813;BME280;9534;51.140;6.296;2022-07-06T18:48:06;101197.94;;;21.33;100.00
18813;BME280;9534;51.140;6.296;2022-07-06T18:52:15;101187.78;;;21.17;100.00
18813;BME280;9534;51.140;6.296;2022-07-06T18:56:18;101183.00;;;21.13;100.00
18813;BME280;9534;51.140;6.296;2022-07-06T19:00:22;101185.53;;;20.88;100.00
18813;BME280;9534;51.140;6.296;2022-07-06T19:04:26;101187.75;;;20.86;100.00
18813;BME280;9534;51.140;6.296;2022-07-06T19:08:31;101179.56;;;20.74;100.00
18813;BME280;9534;51.140;6.296;2022-07-06T19:12:35;101172.53;;;20.67;100.00
18813;BME280;9534;51.140;6.296;2022-07-06T19:16:39;101177.66;;;20.80;100.00
18813;BME280;9534;51.140;6.296;2022-07-06T19:20:42;101169.16;;;20.65;100.00
18813;BME280;9534;51.140;6.296;2022-07-06T19:24:48;101167.31;;;20.44;100.00
18813;BME280;9534;51.140;6.296;2022-07-06T19:28:52;101169.50;;;20.42;100.00
18813;BME280;9534;51.140;6.296;2022-07-06T19:32:58;101163.81;;;20.32;100.00
18813;BME280;9534;51.140;6.296;2022-07-06T19:37:02;101172.50;;;20.14;100.00
18813;BME280;9534;51.140;6.296;2022-07-06T19:41:07;101178.88;;;19.93;100.00
18813;BME280;9534;51.140;6.296;2022-07-06T19:45:11;101177.47;;;19.90;100.00
18813;BME280;9534;51.140;6.296;2022-07-06T19:49:15;101171.38;;;19.93;100.00
18813;BME280;9534;51.140;6.296;2022-07-06T19:53:19;101165.78;;;19.72;100.00
18813;BME280;9534;51.140;6.296;2022-07-06T19:57:27;101179.03;;;19.65;100.00
18813;BME280;9534;51.140;6.296;2022-07-06T20:01:30;101181.25;;;19.63;100.00
18813;BME280;9534;51.140;6.296;2022-07-06T20:05:34;101169.59;;;19.66;100.00
18813;BME280;9534;51.140;6.296;2022-07-06T20:09:38;101170.66;;;19.60;100.00
18813;BME280;9534;51.140;6.296;2022-07-06T20:13:44;101162.19;;;19.72;100.00
18813;BME280;9534;51.140;6.296;2022-07-06T20:17:49;101164.03;;;19.66;100.00
18813;BME280;9534;51.140;6.296;2022-07-06T20:21:54;101170.19;;;19.68;100.00
18813;BME280;9534;51.140;6.296;2022-07-06T20:25:58;101166.81;;;19.66;100.00
18813;BME280;9534;51.140;6.296;2022-07-06T20:30:03;101177.88;;;19.61;100.00
18813;BME280;9534;51.140;6.296;2022-07-06T20:34:07;101167.91;;;19.65;100.00
18813;BME280;9534;51.140;6.296;2022-07-06T20:38:12;101158.19;;;19.63;100.00
18813;BME280;9534;51.140;6.296;2022-07-06T20:42:15;101167.22;;;19.53;100.00
18813;BME280;9534;51.140;6.296;2022-07-06T20:46:20;101174.03;;;19.46;100.00
18813;BME280;9534;51.140;6.296;2022-07-06T20:50:24;101169.84;;;19.43;100.00
18813;BME280;9534;51.140;6.296;2022-07-06T20:54:27;101171.19;;;19.41;100.00
18813;BME280;9534;51.140;6.296;2022-07-06T20:58:31;101167.50;;;19.35;100.00
18813;BME280;9534;51.140;6.296;2022-07-06T21:02:57;101164.63;;;19.30;100.00
18813;BME280;9534;51.140;6.296;2022-07-06T21:07:01;101170.19;;;19.30;100.00
18813;BME280;9534;51.140;6.296;2022-07-06T21:11:05;101162.97;;;19.29;100.00
18813;BME280;9534;51.140;6.296;2022-07-06T21:15:09;101161.78;;;19.25;100.00
18813;BME280;9534;51.140;6.296;2022-07-06T21:19:15;101152.38;;;19.26;100.00
18813;BME280;9534;51.140;6.296;2022-07-06T21:23:19;101143.94;;;19.21;100.00
18813;BME280;9534;51.140;6.296;2022-07-06T21:27:22;101151.00;;;19.12;100.00